Aérodrome :
LOGIN :

S'inscrire | Disclaimer

   EN    FR    IT 

 










Légende :    VFR   VFR Marginal   IFR   IFR Intensif   IFR Très Intensif
Visi : 
Plafond : 
>= 8 km
>= 3000ft
5 à 8 km
1000 à 3000 ft
1500m à 5 km
500 à 1000 ft
800 à 1500m
200 à 500 ft
< 800m
< 200 ft
Symboles :   Orages  Brouillard  Fortes neiges  Fortes précipitations  Vent > 20 kt
SIGMETs :   Divers  Orages  Givrage  Turbulence  Onde Orograph.  Cendres Volcan.







- Altitude de l'aérodrome : 408 ft
- Code IATA : FKB


EDSB - Karlsruhe Baden Baden

DERNIER METAR :
  • 241020Z 28005KT 240V330 9999 FEW032 SCT036 18/11 Q1019

METARs EXPIRÉS :
  • 240950Z 26006KT 200V310 9999 FEW034 19/12 Q1019
  • 240920Z 29006KT 260V340 9999 FEW020 SCT050 18/13 Q1020
  • 240850Z 28005KT 230V350 9999 FEW018 17/13 Q1020
  • 240820Z 29005KT 260V340 9999 FEW015 17/14 Q1020
  • 240750Z 28004KT 240V330 9999 FEW011 16/14 Q1019

TAF TAF EDSB
Valide du 24 à 06h jusqu'au 25 à 06h UTC


240500Z 2406/2506 23007KT 9999 FEW040
TEMPO 2418/2506 VRB03KT
Pas de NOTAMs connus pour ce terrain.



MET'MAP, la Météo Aéronautique d'un coup d'oeil ! - Copyright ORBIFLY Décembre 2007 - Disclaimer

ORBIFLY MET'MAP TEAM :

Programmation & Développement : Alexandra Zaïnal
Conception & Développement : Baudouin d'Aumeries
Co-Programmation & Développement : Marc-Olivier Méhu
Soutien technique & logistique : Manuel Goepfert

Contact : metmap@orbifly.com




SOURCES & CREDITS :

   NOAA